Time;durP1;ratioP1;P1;durP2;ratioP2;P2;SDS_P1;SDS_P2;PMS_P1;PMS_P2;Temp;Humidity;BMP_temperature;BMP_pressure;BME280_temperature;BME280_humidity;BME280_pressure;Samples;Min_cycle;Max_cycle;Signal;HPM_P1;HPM_P2
2024/03/24 00:02:25;;;;;;;1.30;0.97;;;;;;;4.46;100.00;152508.81;5063052;28;21023;-74
2024/03/24 00:04:50;;;;;;;1.23;0.77;;;;;;;4.48;100.00;152512.66;5065000;28;20232;-73
2024/03/24 00:07:24;;;;;;;2.53;1.30;;;;;;;4.47;100.00;152510.13;5067836;28;20825;-74
2024/03/24 00:09:50;;;;;;;1.87;1.00;;;;;;;4.45;100.00;152504.97;5062876;28;20209;-74
2024/03/24 00:12:16;;;;;;;1.20;0.80;;;;;;;4.46;100.00;152508.81;5040820;28;20474;-74
2024/03/24 00:14:43;;;;;;;2.03;1.07;;;;;;;4.47;100.00;152511.41;5061053;28;20210;-73
2024/03/24 00:17:10;;;;;;;2.10;1.27;;;;;;;4.50;100.00;152519.09;5029666;28;20480;-73
2024/03/24 00:19:35;;;;;;;1.57;1.00;;;;;;;4.49;100.00;152515.25;5064014;28;20457;-73
2024/03/24 00:22:02;;;;;;;1.90;0.90;;;;;;;4.49;100.00;152515.25;5065083;28;20864;-73
2024/03/24 00:24:28;;;;;;;1.33;0.90;;;;;;;4.48;100.00;152513.97;5065460;28;20585;-73
2024/03/24 00:26:55;;;;;;;1.50;1.00;;;;;;;4.48;100.00;152513.97;5060109;28;20508;-73
2024/03/24 00:29:21;;;;;;;1.30;1.00;;;;;;;4.51;100.00;152521.69;5062308;28;20689;-73
2024/03/24 00:31:48;;;;;;;1.50;0.90;;;;;;;4.51;100.00;152520.41;5047509;28;20542;-73
2024/03/24 00:34:14;;;;;;;2.50;0.93;;;;;;;4.53;100.00;152525.53;5055600;28;20208;-73
2024/03/24 00:36:41;;;;;;;1.83;1.30;;;;;;;4.53;100.00;152525.53;5057057;28;20934;-73
2024/03/24 00:39:07;;;;;;;1.70;1.13;;;;;;;4.53;100.00;152525.53;5044003;28;20213;-73
2024/03/24 00:41:34;;;;;;;1.60;1.03;;;;;;;4.54;100.00;152528.13;5044220;28;20453;-73
2024/03/24 00:43:59;;;;;;;1.20;0.77;;;;;;;4.54;100.00;152529.44;5044768;28;20973;-73
2024/03/24 00:46:26;;;;;;;1.30;0.77;;;;;;;4.52;100.00;152524.28;5061363;28;20532;-73
2024/03/24 00:48:53;;;;;;;2.20;1.30;;;;;;;4.50;100.00;152519.09;5064099;28;20236;-74
2024/03/24 00:51:19;;;;;;;1.30;0.80;;;;;;;4.48;100.00;152512.66;5067945;28;20840;-74
2024/03/24 00:53:45;;;;;;;1.10;0.90;;;;;;;4.45;100.00;152504.97;5046741;28;20453;-74
2024/03/24 00:56:12;;;;;;;1.30;0.70;;;;;;;4.42;100.00;152497.25;5061906;28;20438;-73
2024/03/24 00:58:37;;;;;;;2.43;0.90;;;;;;;4.38;100.00;152488.22;5045213;28;20220;-74
2024/03/24 01:01:04;;;;;;;1.37;1.00;;;;;;;4.37;100.00;152485.63;5058839;28;20426;-73
2024/03/24 01:03:30;;;;;;;1.37;0.90;;;;;;;4.36;100.00;152483.06;5050529;28;20302;-73
2024/03/24 01:05:58;;;;;;;1.53;0.80;;;;;;;4.36;100.00;152481.78;5065391;28;20454;-74
2024/03/24 01:08:23;;;;;;;2.40;1.33;;;;;;;4.35;100.00;152480.47;5060546;28;20232;-74
2024/03/24 01:10:50;;;;;;;1.73;0.90;;;;;;;4.32;100.00;152474.03;5055400;28;20843;-73
2024/03/24 01:13:15;;;;;;;1.40;0.90;;;;;;;4.32;100.00;152472.75;5043899;28;20680;-73
2024/03/24 01:15:44;;;;;;;2.47;1.13;;;;;;;4.30;100.00;152467.59;5062398;28;20434;-74
2024/03/24 01:18:09;;;;;;;1.70;1.10;;;;;;;4.32;100.00;152472.75;5062305;28;20209;-73
2024/03/24 01:20:36;;;;;;;2.20;0.93;;;;;;;4.31;100.00;152470.19;5042742;28;20469;-74
2024/03/24 01:23:03;;;;;;;2.33;1.23;;;;;;;4.32;100.00;152472.75;5061115;28;20615;-74
2024/03/24 01:25:29;;;;;;;4.00;1.33;;;;;;;4.34;100.00;152476.63;5059318;28;20481;-74
2024/03/24 01:27:55;;;;;;;1.23;1.00;;;;;;;4.37;100.00;152484.38;5041787;28;20814;-74
2024/03/24 01:30:21;;;;;;;1.97;1.10;;;;;;;4.37;100.00;152485.63;5039275;28;20465;-73
2024/03/24 01:32:49;;;;;;;1.50;1.10;;;;;;;4.39;100.00;152490.81;5046582;28;20553;-74
2024/03/24 01:35:16;;;;;;;1.53;1.00;;;;;;;4.40;100.00;152492.06;5048781;28;20476;-74
2024/03/24 01:37:41;;;;;;;2.10;1.20;;;;;;;4.38;100.00;152488.22;5048026;28;20680;-74
2024/03/24 01:40:10;;;;;;;1.70;1.10;;;;;;;4.40;100.00;152492.06;5056356;28;20429;-74
2024/03/24 01:42:36;;;;;;;2.10;1.10;;;;;;;4.39;100.00;152490.81;5045666;28;20201;-74
2024/03/24 01:45:03;;;;;;;2.20;1.07;;;;;;;4.39;100.00;152489.50;5063787;28;20476;-72
2024/03/24 01:47:29;;;;;;;2.27;1.10;;;;;;;4.38;100.00;152488.22;5060301;28;20473;-73
2024/03/24 01:49:56;;;;;;;1.30;0.93;;;;;;;4.39;100.00;152490.81;5054707;28;20442;-74
2024/03/24 01:52:22;;;;;;;1.30;0.97;;;;;;;4.39;100.00;152489.50;5062263;28;20496;-74
2024/03/24 01:54:49;;;;;;;2.27;1.20;;;;;;;4.40;100.00;152492.06;5059169;28;20450;-74
2024/03/24 01:57:16;;;;;;;1.50;1.03;;;;;;;4.38;100.00;152488.22;5042733;28;20334;-73
2024/03/24 01:59:42;;;;;;;2.67;1.30;;;;;;;4.36;100.00;152481.78;5063129;28;20813;-73
2024/03/24 02:02:08;;;;;;;1.40;1.20;;;;;;;4.35;100.00;152479.19;5048326;28;20462;-73
2024/03/24 02:04:34;;;;;;;1.93;1.10;;;;;;;4.36;100.00;152481.78;5063026;28;20475;-73
2024/03/24 02:07:01;;;;;;;2.60;0.93;;;;;;;4.37;100.00;152485.63;5059843;28;20214;-75
2024/03/24 02:09:27;;;;;;;1.83;1.40;;;;;;;4.37;100.00;152485.63;5048428;28;20944;-75
2024/03/24 02:11:53;;;;;;;2.53;1.40;;;;;;;4.36;100.00;152483.06;5060759;28;20474;-75
2024/03/24 02:14:20;;;;;;;1.73;1.20;;;;;;;4.37;100.00;152485.63;5062496;28;20256;-74
2024/03/24 02:16:47;;;;;;;1.57;1.00;;;;;;;4.37;100.00;152485.63;5052622;28;20497;-74
2024/03/24 02:19:12;;;;;;;1.70;1.00;;;;;;;4.39;100.00;152490.81;5063303;28;20511;-74
2024/03/24 02:21:39;;;;;;;2.40;1.30;;;;;;;4.39;100.00;152489.50;5061065;28;20462;-74
2024/03/24 02:24:07;;;;;;;1.80;1.07;;;;;;;4.39;100.00;152490.81;5062254;28;20225;-74
2024/03/24 02:26:32;;;;;;;1.57;1.07;;;;;;;4.39;100.00;152490.81;5051246;28;20976;-74
2024/03/24 02:28:59;;;;;;;2.03;1.10;;;;;;;4.33;100.00;152475.34;5040808;28;20593;-74
2024/03/24 02:31:24;;;;;;;1.43;0.80;;;;;;;4.30;100.00;152467.59;5067521;28;20282;-74
2024/03/24 02:33:51;;;;;;;2.00;0.93;;;;;;;4.28;100.00;152462.47;5067977;28;20722;-74
2024/03/24 02:36:17;;;;;;;1.50;1.10;;;;;;;4.27;100.00;152459.88;5065649;28;20209;-74
2024/03/24 02:38:43;;;;;;;1.10;0.70;;;;;;;4.21;100.00;152444.41;5064494;28;20457;-74
2024/03/24 02:41:10;;;;;;;2.03;1.30;;;;;;;4.17;100.00;152434.13;5065513;28;20212;-74
2024/03/24 02:43:37;;;;;;;1.40;0.80;;;;;;;4.14;100.00;152426.38;5067445;28;20470;-74
2024/03/24 02:46:03;;;;;;;2.03;1.20;;;;;;;4.10;100.00;152416.09;5046993;28;20503;-74
2024/03/24 02:48:29;;;;;;;1.37;1.03;;;;;;;4.03;100.00;152398.03;5064377;28;20434;-74
2024/03/24 02:50:55;;;;;;;1.70;0.97;;;;;;;3.99;100.00;152387.75;5052683;28;20205;-74
2024/03/24 02:53:21;;;;;;;1.20;0.80;;;;;;;3.94;100.00;152374.88;5067536;28;20523;-73
2024/03/24 02:55:47;;;;;;;4.30;0.80;;;;;;;3.92;100.00;152369.75;5064237;28;20622;-73
2024/03/24 02:58:16;;;;;;;1.53;0.97;;;;;;;3.90;100.00;152364.56;5057883;28;20469;-73
2024/03/24 03:00:42;;;;;;;2.40;1.03;;;;;;;3.87;100.00;152358.13;5061202;28;20493;-73
2024/03/24 03:03:08;;;;;;;1.10;0.90;;;;;;;3.85;100.00;152351.69;5066066;28;20926;-73
2024/03/24 03:05:34;;;;;;;1.20;0.83;;;;;;;3.85;100.00;152351.69;5046120;28;20482;-73
2024/03/24 03:08:02;;;;;;;1.43;0.80;;;;;;;3.84;100.00;152349.16;5063188;28;20430;-73
2024/03/24 03:10:30;;;;;;;1.20;0.93;;;;;;;3.83;100.00;152347.84;5066799;28;20209;-74
2024/03/24 03:12:57;;;;;;;1.23;0.80;;;;;;;3.82;100.00;152343.97;5046040;28;20484;-74
2024/03/24 03:15:24;;;;;;;1.10;0.70;;;;;;;3.81;100.00;152341.41;5053419;28;21031;-74
2024/03/24 03:17:50;;;;;;;1.47;0.90;;;;;;;3.81;100.00;152342.72;5061657;28;20457;-74
2024/03/24 03:20:16;;;;;;;2.20;1.23;;;;;;;3.83;100.00;152346.56;5067219;28;20446;-73
2024/03/24 03:22:42;;;;;;;1.20;0.80;;;;;;;3.79;100.00;152336.22;5063796;28;20515;-73
2024/03/24 03:25:08;;;;;;;1.10;0.90;;;;;;;3.74;100.00;152323.34;5052933;28;20335;-73
2024/03/24 03:27:35;;;;;;;1.40;0.77;;;;;;;3.67;100.00;152307.94;5067241;28;20979;-74
2024/03/24 03:30:00;;;;;;;1.60;1.00;;;;;;;3.65;100.00;152302.75;5066103;28;20209;-73
2024/03/24 03:32:28;;;;;;;1.00;0.90;;;;;;;3.65;100.00;152302.75;5081494;28;20990;-74
2024/03/24 03:34:55;;;;;;;2.40;1.20;;;;;;;3.66;100.00;152304.06;5066568;28;20229;-74
2024/03/24 03:37:22;;;;;;;1.20;1.00;;;;;;;3.67;100.00;152306.66;5064775;28;20450;-74
2024/03/24 03:39:47;;;;;;;1.00;0.70;;;;;;;3.66;100.00;152305.34;5044846;28;20493;-74
2024/03/24 03:42:14;;;;;;;1.43;0.70;;;;;;;3.64;100.00;152298.91;5043997;28;20465;-74
2024/03/24 03:44:40;;;;;;;1.20;0.80;;;;;;;3.65;100.00;152301.50;5047062;28;20217;-74
2024/03/24 03:47:06;;;;;;;1.77;0.53;;;;;;;3.68;100.00;152310.50;5062810;28;20488;-74
2024/03/24 03:49:33;;;;;;;2.00;0.77;;;;;;;3.72;100.00;152318.22;5066598;28;20216;-73
2024/03/24 03:52:00;;;;;;;1.13;0.63;;;;;;;3.73;100.00;152320.81;5047031;28;20914;-73
2024/03/24 03:54:26;;;;;;;4.03;1.00;;;;;;;3.73;100.00;152320.81;5028734;28;20438;-73
2024/03/24 03:56:53;;;;;;;1.30;0.90;;;;;;;3.74;100.00;152323.34;5062097;28;20464;-73
2024/03/24 03:59:19;;;;;;;1.00;0.70;;;;;;;3.75;100.00;152325.94;5024434;28;20449;-75
2024/03/24 04:01:46;;;;;;;1.13;0.90;;;;;;;3.76;100.00;152328.53;5074035;28;20904;-74
2024/03/24 04:04:11;;;;;;;1.20;0.80;;;;;;;3.78;100.00;152333.69;5063819;28;20485;-73
2024/03/24 04:06:39;;;;;;;1.23;0.80;;;;;;;3.79;100.00;152337.53;5054938;28;20526;-72
2024/03/24 04:09:04;;;;;;;1.53;0.80;;;;;;;3.82;100.00;152343.97;5052541;28;20290;-73
2024/03/24 04:11:31;;;;;;;1.03;0.60;;;;;;;3.80;100.00;152340.13;5064348;28;20485;-74
2024/03/24 04:13:57;;;;;;;1.40;0.83;;;;;;;3.80;100.00;152338.81;5061550;28;20206;-73
2024/03/24 04:16:23;;;;;;;1.20;0.90;;;;;;;3.81;100.00;152342.72;5060503;28;20527;-73
2024/03/24 04:18:49;;;;;;;1.63;0.93;;;;;;;3.79;100.00;152336.22;5036095;28;20286;-73
2024/03/24 04:21:16;;;;;;;1.40;1.00;;;;;;;3.79;100.00;152337.53;5066496;28;20875;-74
2024/03/24 04:23:43;;;;;;;1.30;0.80;;;;;;;3.81;100.00;152341.41;5065560;28;20324;-73
2024/03/24 04:26:10;;;;;;;1.30;0.73;;;;;;;3.81;100.00;152341.41;5042937;28;20482;-73
2024/03/24 04:28:35;;;;;;;1.10;0.97;;;;;;;3.81;100.00;152342.72;5066119;28;20458;-74
2024/03/24 04:31:02;;;;;;;1.80;1.10;;;;;;;3.80;100.00;152340.13;5060069;28;20827;-73
2024/03/24 04:33:27;;;;;;;1.67;0.90;;;;;;;3.79;100.00;152336.22;5063708;28;20342;-74
2024/03/24 04:35:54;;;;;;;1.67;1.00;;;;;;;3.78;100.00;152334.97;5060072;28;20452;-74
2024/03/24 04:38:19;;;;;;;1.67;1.10;;;;;;;3.80;100.00;152338.81;5062904;28;20274;-74
2024/03/24 04:40:48;;;;;;;1.37;0.87;;;;;;;3.79;100.00;152336.22;5063095;28;20446;-74
2024/03/24 04:43:15;;;;;;;1.60;0.80;;;;;;;3.79;100.00;152337.53;5067892;28;20923;-74
2024/03/24 04:45:43;;;;;;;0.90;0.77;;;;;;;3.79;100.00;152336.22;5063262;28;20469;-74
2024/03/24 04:48:11;;;;;;;1.00;0.63;;;;;;;3.78;100.00;152333.69;5060993;28;20446;-73
2024/03/24 04:50:36;;;;;;;0.90;0.50;;;;;;;3.78;100.00;152333.69;5061883;28;20910;-74
2024/03/24 04:53:03;;;;;;;1.27;0.70;;;;;;;3.74;100.00;152324.66;5064923;28;20446;-74
2024/03/24 04:55:29;;;;;;;1.90;0.90;;;;;;;3.70;100.00;152314.38;5047847;28;20201;-73
2024/03/24 04:57:57;;;;;;;1.07;0.73;;;;;;;3.65;100.00;152301.50;5045995;28;20534;-74
2024/03/24 05:00:25;;;;;;;1.17;0.63;;;;;;;3.65;100.00;152302.75;5064418;28;20197;-74
2024/03/24 05:02:50;;;;;;;1.10;0.80;;;;;;;3.61;100.00;152292.47;5065800;28;20457;-74
2024/03/24 05:05:17;;;;;;;1.50;0.80;;;;;;;3.62;100.00;152295.06;5040523;28;20457;-74
2024/03/24 05:07:43;;;;;;;1.23;0.90;;;;;;;3.64;100.00;152300.22;5066156;28;20205;-75
2024/03/24 05:10:10;;;;;;;1.40;0.93;;;;;;;3.65;100.00;152302.75;5061017;28;20943;-74
2024/03/24 05:12:36;;;;;;;1.50;1.00;;;;;;;3.65;100.00;152302.75;5060152;28;20462;-74
2024/03/24 05:15:05;;;;;;;1.90;0.87;;;;;;;3.64;100.00;152300.22;5064582;28;20489;-74
2024/03/24 05:17:31;;;;;;;2.70;0.90;;;;;;;3.65;100.00;152301.50;5061378;28;20805;-74
2024/03/24 05:19:57;;;;;;;1.47;0.90;;;;;;;3.61;100.00;152291.19;5066481;28;20491;-74
2024/03/24 05:22:23;;;;;;;1.00;0.70;;;;;;;3.62;100.00;152295.06;5048449;28;20217;-74
2024/03/24 05:24:49;;;;;;;1.40;0.73;;;;;;;3.61;100.00;152292.47;5063333;28;20485;-74
2024/03/24 05:27:15;;;;;;;1.07;0.63;;;;;;;3.60;100.00;152289.88;5045903;28;20205;-74
2024/03/24 05:29:42;;;;;;;1.70;0.60;;;;;;;3.57;100.00;152282.16;5041331;28;20457;-74
2024/03/24 05:32:09;;;;;;;1.93;0.90;;;;;;;3.55;100.00;152277.03;5045156;28;20198;-74
2024/03/24 05:34:35;;;;;;;1.67;0.90;;;;;;;3.51;100.00;152266.75;5065148;28;20478;-73
2024/03/24 05:37:01;;;;;;;1.37;0.80;;;;;;;3.52;100.00;152268.03;5059925;28;20473;-73
2024/03/24 05:39:27;;;;;;;1.53;0.97;;;;;;;3.50;100.00;152264.16;5064920;28;20449;-73
2024/03/24 05:41:53;;;;;;;1.07;0.70;;;;;;;3.49;100.00;152261.59;5061115;28;20258;-74
2024/03/24 05:44:19;;;;;;;2.07;0.60;;;;;;;3.49;100.00;152260.31;5065982;28;20469;-73
2024/03/24 05:46:45;;;;;;;1.00;0.60;;;;;;;3.51;100.00;152266.75;5049889;28;20706;-74
2024/03/24 05:49:13;;;;;;;1.00;0.80;;;;;;;3.52;100.00;152269.28;5047282;28;20463;-74
2024/03/24 05:51:39;;;;;;;1.43;0.80;;;;;;;3.54;100.00;152273.19;5047447;28;20237;-74
2024/03/24 05:54:06;;;;;;;1.37;0.80;;;;;;;3.54;100.00;152274.47;5026200;28;20483;-74
2024/03/24 05:56:31;;;;;;;0.90;0.70;;;;;;;3.57;100.00;152280.91;5044203;28;20485;-74
2024/03/24 05:58:58;;;;;;;1.37;0.80;;;;;;;3.60;100.00;152289.88;5058975;28;20489;-74
2024/03/24 06:01:24;;;;;;;1.73;1.13;;;;;;;3.63;100.00;152297.63;5062398;28;20699;-74
2024/03/24 06:03:51;;;;;;;1.20;0.70;;;;;;;3.66;100.00;152305.34;5064082;28;20475;-74
2024/03/24 06:06:18;;;;;;;1.17;0.60;;;;;;;3.71;100.00;152315.69;5063142;28;20231;-74
2024/03/24 06:08:44;;;;;;;2.03;1.00;;;;;;;3.74;100.00;152323.34;5064493;28;20552;-75
2024/03/24 06:11:10;;;;;;;1.50;0.90;;;;;;;3.78;100.00;152333.69;5064251;28;20465;-74
2024/03/24 06:13:37;;;;;;;4.07;1.00;;;;;;;3.80;100.00;152338.81;5045611;28;20615;-74
2024/03/24 06:16:03;;;;;;;1.10;0.60;;;;;;;3.80;100.00;152340.13;5045253;28;20213;-74
2024/03/24 06:18:30;;;;;;;1.00;0.63;;;;;;;3.84;100.00;152349.16;5066810;28;20905;-74
2024/03/24 06:20:56;;;;;;;2.93;1.03;;;;;;;3.85;100.00;152351.69;5041189;28;20869;-74
2024/03/24 06:23:25;;;;;;;1.60;0.90;;;;;;;3.87;100.00;152358.13;5056601;28;20450;-74
2024/03/24 06:25:50;;;;;;;1.60;1.00;;;;;;;3.89;100.00;152363.25;5038771;28;20493;-74
2024/03/24 06:28:17;;;;;;;1.10;0.80;;;;;;;3.91;100.00;152367.16;5040473;28;20462;-74
2024/03/24 06:30:42;;;;;;;1.00;0.80;;;;;;;3.93;100.00;152372.28;5065096;28;20565;-74
2024/03/24 06:33:09;;;;;;;2.03;0.80;;;;;;;4.03;100.00;152398.03;5065068;28;20569;-74
2024/03/24 06:35:35;;;;;;;1.93;0.83;;;;;;;4.34;100.00;152476.63;5061918;28;20208;-74
2024/03/24 06:38:02;;;;;;;1.13;0.90;;;;;;;4.75;100.00;152583.56;5062851;28;20928;-74
2024/03/24 06:40:29;;;;;;;1.50;1.03;;;;;;;5.13;100.00;152680.22;5049655;28;20639;-74
2024/03/24 06:43:00;;;;;;;2.40;1.20;;;;;;;5.40;100.00;152748.56;5043642;28;20460;-74
2024/03/24 06:45:29;;;;;;;1.80;0.93;;;;;;;5.69;100.00;152823.34;5038200;28;20475;-74
2024/03/24 06:47:56;;;;;;;1.30;1.00;;;;;;;5.97;100.00;152895.59;5063580;28;20450;-74
2024/03/24 06:50:21;;;;;;;1.77;0.90;;;;;;;6.23;100.00;152961.38;5061934;28;20824;-74
2024/03/24 06:52:50;;;;;;;1.87;0.70;;;;;;;6.36;100.00;152993.63;5061608;28;20458;-74
2024/03/24 06:55:15;;;;;;;1.63;1.10;;;;;;;6.39;100.00;153002.66;5058829;28;20216;-74
2024/03/24 06:57:43;;;;;;;1.50;0.80;;;;;;;6.39;100.00;153001.38;5033079;28;20470;-74
2024/03/24 07:00:11;;;;;;;1.17;0.97;;;;;;;6.38;100.00;152998.81;5063551;28;20694;-74
2024/03/24 07:02:37;;;;;;;1.30;0.80;;;;;;;6.29;100.00;152975.56;5027899;28;20463;-73
2024/03/24 07:05:03;;;;;;;1.40;0.70;;;;;;;6.24;99.68;152962.66;5065628;28;20568;-73
2024/03/24 07:07:30;;;;;;;1.17;0.77;;;;;;;6.21;99.48;152954.94;5045342;28;20581;-73
2024/03/24 07:09:56;;;;;;;1.73;1.00;;;;;;;6.14;99.43;152939.44;5060503;28;20450;-72
2024/03/24 07:12:23;;;;;;;1.50;1.00;;;;;;;6.09;99.65;152926.53;5030411;28;20488;-74
2024/03/24 07:14:50;;;;;;;1.10;1.00;;;;;;;6.06;99.25;152918.78;5043679;28;20767;-75
2024/03/24 07:17:16;;;;;;;1.70;0.87;;;;;;;6.02;99.35;152908.50;5061102;28;21052;-74
2024/03/24 07:19:42;;;;;;;1.33;0.90;;;;;;;6.01;99.09;152905.88;5059671;28;20551;-74
2024/03/24 07:22:09;;;;;;;1.67;0.93;;;;;;;5.99;99.27;152899.44;5061068;28;20867;-73
2024/03/24 07:24:34;;;;;;;5.17;1.53;;;;;;;5.96;98.80;152893.00;5060332;28;20239;-73
2024/03/24 07:27:02;;;;;;;1.80;1.30;;;;;;;5.94;97.95;152886.56;5061117;28;20925;-73
2024/03/24 07:29:28;;;;;;;2.03;1.70;;;;;;;5.92;97.38;152882.69;5063321;28;20205;-73
2024/03/24 07:31:55;;;;;;;2.90;1.20;;;;;;;5.92;96.03;152882.69;5059608;28;20816;-74
2024/03/24 07:34:21;;;;;;;1.43;1.10;;;;;;;6.20;96.28;152952.31;5060462;28;20910;-73
2024/03/24 07:36:47;;;;;;;2.30;1.50;;;;;;;6.61;97.02;153058.16;5059462;28;20449;-73
2024/03/24 07:39:13;;;;;;;1.60;1.20;;;;;;;7.03;96.64;153166.59;5042392;28;20213;-74
2024/03/24 07:41:40;;;;;;;2.20;1.50;;;;;;;7.40;95.14;153260.84;5062101;28;20833;-75
2024/03/24 07:44:06;;;;;;;3.73;1.30;;;;;;;7.78;93.15;153357.72;5062176;28;20483;-75
2024/03/24 07:46:33;;;;;;;1.60;0.93;;;;;;;8.16;92.10;153454.59;5062743;28;20963;-73
2024/03/24 07:49:00;;;;;;;1.60;1.20;;;;;;;8.42;87.14;153523.16;5059591;28;20468;-73
2024/03/24 07:51:26;;;;;;;1.83;1.37;;;;;;;8.60;84.64;153568.44;5042776;28;20458;-73
2024/03/24 07:53:55;;;;;;;1.53;1.03;;;;;;;8.84;84.22;153629.19;5039416;28;20465;-75
2024/03/24 07:56:21;;;;;;;1.20;0.90;;;;;;;9.06;82.18;153686.06;5059696;28;20826;-73
2024/03/24 07:58:47;;;;;;;2.47;1.20;;;;;;;9.34;80.87;153758.50;5065465;28;20454;-75
2024/03/24 08:01:14;;;;;;;2.50;1.30;;;;;;;9.64;79.85;153836.09;5021119;28;20473;-73
2024/03/24 08:03:39;;;;;;;1.67;1.23;;;;;;;9.82;78.97;153882.69;5059303;28;20587;-73
2024/03/24 08:06:11;;;;;;;1.37;0.93;;;;;;;9.99;78.51;153924.09;5064291;28;20478;-73
2024/03/24 08:08:36;;;;;;;1.23;0.77;;;;;;;10.04;75.63;153937.03;5061744;28;20201;-73
2024/03/24 08:11:03;;;;;;;1.40;0.97;;;;;;;10.02;74.26;153931.88;5051984;28;20961;-73
2024/03/24 08:13:29;;;;;;;1.40;0.80;;;;;;;10.12;75.58;153957.72;5060679;28;20267;-73
2024/03/24 08:15:55;;;;;;;1.83;1.00;;;;;;;10.23;75.20;153986.28;5048679;28;20449;-74
2024/03/24 08:18:21;;;;;;;1.60;1.13;;;;;;;10.30;74.82;154005.69;5056490;28;20871;-73
2024/03/24 08:20:48;;;;;;;1.43;1.07;;;;;;;10.33;73.73;154012.16;5060890;28;20513;-75
2024/03/24 08:23:15;;;;;;;2.30;0.80;;;;;;;10.29;75.12;154001.81;5040760;28;20239;-75
2024/03/24 08:25:42;;;;;;;2.30;0.90;;;;;;;10.23;75.73;153987.56;5058976;28;20492;-75
2024/03/24 08:28:08;;;;;;;1.50;1.20;;;;;;;10.26;75.45;153994.03;5044856;28;20461;-76
2024/03/24 08:30:35;;;;;;;2.40;1.00;;;;;;;10.22;74.22;153983.66;5042173;28;20457;-75
2024/03/24 08:33:00;;;;;;;3.33;0.80;;;;;;;10.18;73.68;153973.34;5038087;28;20970;-75
2024/03/24 08:35:27;;;;;;;1.37;0.90;;;;;;;10.14;75.68;153964.25;5051176;28;20508;-75
2024/03/24 08:37:53;;;;;;;1.40;0.90;;;;;;;10.12;75.81;153957.72;5052216;28;20209;-75
2024/03/24 08:40:21;;;;;;;1.53;0.90;;;;;;;10.19;75.78;153975.94;5058442;28;20806;-75
2024/03/24 08:42:46;;;;;;;2.30;1.03;;;;;;;10.16;74.65;153969.47;5042755;28;20560;-75
2024/03/24 08:45:13;;;;;;;1.63;0.90;;;;;;;10.15;76.12;153965.56;5062471;28;20478;-75
2024/03/24 08:47:38;;;;;;;2.97;1.40;;;;;;;10.16;74.55;153968.16;5063573;28;20205;-74
2024/03/24 08:50:06;;;;;;;2.40;1.10;;;;;;;10.26;75.16;153995.34;5064246;28;20849;-75
2024/03/24 08:52:31;;;;;;;1.83;1.10;;;;;;;10.26;74.87;153994.03;5061833;28;20213;-75
2024/03/24 08:54:58;;;;;;;1.87;1.10;;;;;;;10.18;74.40;153974.63;5059241;28;20775;-75
2024/03/24 08:57:25;;;;;;;1.77;1.00;;;;;;;10.01;72.11;153930.56;5058907;28;20220;-75
2024/03/24 08:59:54;;;;;;;1.80;1.27;;;;;;;9.81;72.24;153878.81;5060414;28;20895;-74
2024/03/24 09:02:22;;;;;;;2.50;1.00;;;;;;;9.64;73.70;153834.81;5061537;28;20819;-74
2024/03/24 09:04:53;;;;;;;3.70;1.10;;;;;;;9.52;72.47;153805.06;5043073;28;20501;-74
2024/03/24 09:07:19;;;;;;;1.83;1.20;;;;;;;9.38;70.82;153767.53;5055485;28;20213;-74
2024/03/24 09:09:45;;;;;;;2.00;1.43;;;;;;;9.22;72.03;153727.44;5063824;28;20450;-74
2024/03/24 09:12:11;;;;;;;1.63;1.03;;;;;;;9.07;71.86;153688.66;5061087;28;20213;-74
2024/03/24 09:14:39;;;;;;;4.37;1.40;;;;;;;8.97;73.14;153662.81;5064820;28;20472;-75
2024/03/24 09:17:04;;;;;;;3.20;1.77;;;;;;;8.78;73.19;153614.97;5043112;28;20212;-74
2024/03/24 09:19:31;;;;;;;2.23;1.70;;;;;;;8.72;74.19;153598.13;5051566;28;20958;-74
2024/03/24 09:21:57;;;;;;;1.97;1.47;;;;;;;8.65;75.15;153580.03;5059079;28;20299;-74
2024/03/24 09:24:23;;;;;;;1.43;1.00;;;;;;;8.56;74.05;153559.38;5057573;28;20511;-74
2024/03/24 09:26:51;;;;;;;2.73;1.17;;;;;;;8.51;73.86;153546.44;5046652;28;20257;-74
2024/03/24 09:29:17;;;;;;;1.80;1.23;;;;;;;8.47;75.60;153536.06;5061066;28;20948;-75
2024/03/24 09:31:47;;;;;;;2.23;1.80;;;;;;;8.39;74.35;153515.38;5039766;28;20465;-75
2024/03/24 09:34:16;;;;;;;4.33;1.90;;;;;;;8.40;73.98;153518.00;5065005;28;20538;-74
2024/03/24 09:36:42;;;;;;;1.83;1.40;;;;;;;8.44;74.87;153527.06;5025954;28;20541;-75
2024/03/24 09:39:08;;;;;;;3.50;1.60;;;;;;;8.46;75.66;153532.22;5020852;28;20455;-75
2024/03/24 09:41:41;;;;;;;2.60;1.20;;;;;;;8.46;74.84;153532.22;5040665;28;20201;-75
2024/03/24 09:44:12;;;;;;;4.40;1.50;;;;;;;8.50;74.93;153543.84;5036355;28;21287;-75
2024/03/24 09:46:39;;;;;;;1.83;1.20;;;;;;;8.48;74.79;153537.38;5053144;28;20478;-75
2024/03/24 09:49:10;;;;;;;3.93;1.80;;;;;;;8.39;74.06;153514.13;5037260;28;20454;-75
2024/03/24 09:51:38;;;;;;;4.53;2.00;;;;;;;8.32;73.52;153497.31;5040859;28;20457;-75
2024/03/24 09:54:05;;;;;;;2.73;1.77;;;;;;;8.24;74.02;153476.59;5038768;28;20458;-73
2024/03/24 09:56:31;;;;;;;2.70;1.77;;;;;;;8.21;76.13;153468.81;5058679;28;20450;-73
2024/03/24 09:59:00;;;;;;;2.83;1.40;;;;;;;8.15;73.41;153453.34;5058567;28;20489;-75
2024/03/24 10:01:25;;;;;;;3.47;1.57;;;;;;;8.15;74.22;153452.03;5055463;28;20481;-75
2024/03/24 10:03:53;;;;;;;3.00;1.80;;;;;;;8.08;76.27;153433.94;5056698;28;20455;-75
2024/03/24 10:06:22;;;;;;;2.10;1.47;;;;;;;8.04;75.01;153424.91;5054361;28;20236;-75
2024/03/24 10:08:50;;;;;;;2.93;1.47;;;;;;;8.04;75.52;153424.91;5054650;28;20442;-75
2024/03/24 10:11:29;;;;;;;2.43;1.83;;;;;;;8.00;75.05;153414.53;5057479;28;20908;-75
2024/03/24 10:13:56;;;;;;;2.20;1.70;;;;;;;7.99;75.66;153412.00;5054067;28;20977;-75
2024/03/24 10:16:22;;;;;;;3.60;1.60;;;;;;;7.92;75.49;153393.88;5042548;28;20466;-75
2024/03/24 10:18:49;;;;;;;2.73;1.70;;;;;;;7.90;75.45;153388.72;5057660;28;21286;-75
2024/03/24 10:21:17;;;;;;;2.03;1.20;;;;;;;7.92;75.70;153395.19;5037492;28;20300;-75
2024/03/24 10:23:46;;;;;;;2.80;1.50;;;;;;;7.94;76.39;153399.09;5061810;28;20438;-74
2024/03/24 10:26:18;;;;;;;2.63;1.90;;;;;;;7.96;77.24;153404.22;5052862;28;21964;-74
2024/03/24 10:28:44;;;;;;;2.57;1.70;;;;;;;7.97;77.63;153406.78;5033601;28;20458;-74
2024/03/24 10:31:10;;;;;;;2.47;1.70;;;;;;;7.99;78.59;153412.00;5023796;28;20430;-74
2024/03/24 10:34:05;;;;;;;2.27;1.90;;;;;;;7.96;76.60;153404.22;5032691;28;20475;-74
2024/03/24 10:36:37;;;;;;;2.60;1.37;;;;;;;7.97;76.42;153406.78;5053693;28;20450;-73
2024/03/24 10:39:07;;;;;;;3.97;1.67;;;;;;;7.95;76.77;153402.94;5061057;28;20442;-72
2024/03/24 10:41:34;;;;;;;2.20;0.90;;;;;;;8.02;78.44;153418.44;5030801;28;20465;-73
2024/03/24 10:44:02;;;;;;;2.37;1.70;;;;;;;8.07;79.03;153432.66;5055271;28;21067;-73
2024/03/24 10:46:31;;;;;;;2.57;1.73;;;;;;;8.11;78.28;153443.00;5037801;28;20574;-73
2024/03/24 10:48:59;;;;;;;3.70;1.60;;;;;;;8.21;79.88;153468.81;5045790;28;20976;-73
2024/03/24 10:51:29;;;;;;;2.97;2.00;;;;;;;8.20;78.04;153466.28;5058839;28;20457;-73
2024/03/24 10:54:00;;;;;;;2.90;1.80;;;;;;;8.23;78.12;153474.03;5042522;28;21038;-73
2024/03/24 10:56:27;;;;;;;3.80;1.87;;;;;;;8.23;75.18;153474.03;5056968;28;20530;-73
2024/03/24 10:58:54;;;;;;;7.03;1.67;;;;;;;8.21;74.75;153468.81;5025582;28;20580;-74
2024/03/24 11:01:20;;;;;;;4.77;2.40;;;;;;;8.25;75.88;153479.19;5050674;28;20455;-73
2024/03/24 11:03:48;;;;;;;3.93;1.47;;;;;;;8.25;77.92;153479.19;5055495;28;20520;-73
2024/03/24 11:06:14;;;;;;;1.90;1.60;;;;;;;8.20;76.53;153464.97;5044213;28;20221;-73
2024/03/24 11:08:42;;;;;;;1.93;1.70;;;;;;;8.28;76.69;153487.00;5059218;28;20488;-73
2024/03/24 11:11:09;;;;;;;2.60;1.70;;;;;;;8.34;76.58;153502.47;5057211;28;20588;-73
2024/03/24 11:13:37;;;;;;;3.77;1.70;;;;;;;8.39;75.16;153515.38;5045254;28;20464;-73
2024/03/24 11:16:04;;;;;;;3.03;1.30;;;;;;;8.39;75.24;153515.38;5041414;28;20201;-74
2024/03/24 11:18:31;;;;;;;2.87;1.60;;;;;;;8.44;76.18;153528.34;5060483;28;20458;-74
2024/03/24 11:21:00;;;;;;;3.43;1.63;;;;;;;8.49;75.85;153541.28;5058558;28;20453;-74
2024/03/24 11:23:34;;;;;;;2.53;1.87;;;;;;;8.50;76.67;153542.53;5054196;28;20465;-74
2024/03/24 11:26:02;;;;;;;2.70;2.13;;;;;;;8.46;74.44;153532.22;5058600;28;20542;-74